Time;durP1;ratioP1;P1;durP2;ratioP2;P2;SDS_P1;SDS_P2;PMS_P1;PMS_P2;Temp;Humidity;BMP_temperature;BMP_pressure;BME280_temperature;BME280_humidity;BME280_pressure;Samples;Min_cycle;Max_cycle;Signal;HPM_P1;HPM_P2
2021/12/26 00:00:23;;;;;;;5.55;3.08;;;;;;;-2.97;65.62;99148.72;5064571;28;20024;-86
2021/12/26 00:02:49;;;;;;;8.77;4.40;;;;;;;-2.96;64.79;99142.38;5064532;28;20479;-86
2021/12/26 00:05:15;;;;;;;14.98;4.05;;;;;;;-3.01;65.49;99150.13;5065046;28;20035;-86
2021/12/26 00:07:41;;;;;;;11.02;5.10;;;;;;;-2.81;65.15;99152.97;5065367;28;20095;-86
2021/12/26 00:10:10;;;;;;;12.45;4.75;;;;;;;-2.74;65.14;99150.38;5064662;28;20059;-86
2021/12/26 00:12:36;;;;;;;9.43;4.80;;;;;;;-2.87;66.14;99152.94;5063423;28;20499;-87
2021/12/26 00:15:03;;;;;;;12.32;4.18;;;;;;;-2.78;65.06;99146.44;5048352;28;20032;-86
2021/12/26 00:17:29;;;;;;;8.93;4.38;;;;;;;-2.72;64.93;99140.31;5064824;28;20020;-86
2021/12/26 00:19:54;;;;;;;7.35;3.50;;;;;;;-2.83;65.83;99148.88;5066692;28;20036;-86
2021/12/26 00:22:19;;;;;;;7.20;4.22;;;;;;;-2.71;65.23;99136.66;5065777;28;20035;-87
2021/12/26 00:24:46;;;;;;;6.97;3.08;;;;;;;-2.66;64.80;99135.22;5064681;28;20409;-87
2021/12/26 00:27:13;;;;;;;8.85;4.82;;;;;;;-2.73;64.98;99128.00;5064467;28;20025;-87
2021/12/26 00:29:38;;;;;;;9.30;4.28;;;;;;;-2.60;65.00;99131.78;5063987;28;20067;-87
2021/12/26 00:32:06;;;;;;;11.10;4.32;;;;;;;-2.65;64.57;99127.03;5066245;28;20029;-87
2021/12/26 00:34:32;;;;;;;7.30;3.83;;;;;;;-2.68;64.54;99129.28;5064634;28;20040;-87
2021/12/26 00:36:58;;;;;;;8.00;3.55;;;;;;;-2.72;64.49;99124.31;5066496;28;20032;-87
2021/12/26 00:39:23;;;;;;;9.00;3.63;;;;;;;-2.72;65.63;99124.31;5064115;28;20128;-86
2021/12/26 00:41:49;;;;;;;4.55;2.55;;;;;;;-2.75;64.96;99123.88;5065255;28;20066;-87
2021/12/26 00:44:14;;;;;;;9.23;4.63;;;;;;;-2.61;65.07;99117.63;5047020;28;20311;-88
2021/12/26 00:46:39;;;;;;;15.85;3.85;;;;;;;-2.71;64.89;99125.97;5064428;28;20713;-88
2021/12/26 00:49:05;;;;;;;10.10;3.72;;;;;;;-2.56;66.16;99114.34;5067028;28;20029;-88
2021/12/26 00:54:15;;;;;;;9.93;3.13;;;;;;;-2.35;65.36;99108.16;5062036;28;20043;-86
2021/12/26 00:56:40;;;;;;;6.55;3.47;;;;;;;-2.48;64.90;99105.38;5064364;28;20020;-88
2021/12/26 00:59:06;;;;;;;6.78;3.97;;;;;;;-2.63;65.39;99106.31;5065160;28;20042;-88
2021/12/26 01:01:31;;;;;;;8.70;3.85;;;;;;;-2.66;64.79;99105.84;5049189;28;20502;-87
2021/12/26 01:03:57;;;;;;;9.23;4.10;;;;;;;-2.55;65.14;99101.84;5064644;28;20032;-87
2021/12/26 01:06:23;;;;;;;5.88;2.97;;;;;;;-2.45;65.49;99105.00;5044162;28;20037;-87
2021/12/26 01:08:51;;;;;;;9.43;4.68;;;;;;;-2.46;64.95;99104.16;5041564;28;20131;-87
2021/12/26 01:11:37;;;;;;;7.35;3.15;;;;;;;-2.41;64.63;99097.41;5062847;28;20034;-88
2021/12/26 01:14:12;;;;;;;10.32;3.75;;;;;;;-2.42;64.59;99106.47;5061810;28;20048;-88
2021/12/26 01:16:39;;;;;;;7.53;3.95;;;;;;;-2.36;66.13;99095.00;5062028;28;20029;-87
2021/12/26 01:19:13;;;;;;;6.03;2.40;;;;;;;-2.50;65.18;99091.41;5044355;28;20391;-88
2021/12/26 01:21:40;;;;;;;6.78;2.83;;;;;;;-2.60;65.75;99094.41;5061329;28;20025;-87
2021/12/26 01:24:08;;;;;;;8.73;4.03;;;;;;;-2.37;65.05;99102.19;5062368;28;20032;-87
2021/12/26 01:26:34;;;;;;;12.75;5.05;;;;;;;-2.39;65.49;99090.03;5060069;28;20021;-87
2021/12/26 01:29:01;;;;;;;8.57;3.45;;;;;;;-2.33;65.65;99094.59;5061338;28;20666;-87
2021/12/26 01:31:27;;;;;;;11.55;3.17;;;;;;;-2.43;65.23;99094.13;5061179;28;20539;-87
2021/12/26 01:33:56;;;;;;;8.98;3.97;;;;;;;-2.38;64.89;99091.69;5060726;28;20094;-87
2021/12/26 01:36:22;;;;;;;7.97;3.20;;;;;;;-2.28;64.93;99086.81;5061499;28;20024;-87
2021/12/26 01:38:47;;;;;;;6.72;2.67;;;;;;;-2.32;65.21;99087.41;5060598;28;20042;-86
2021/12/26 01:41:16;;;;;;;8.52;3.85;;;;;;;-2.38;65.82;99092.50;5062668;28;20044;-88
2021/12/26 01:43:58;;;;;;;9.20;3.00;;;;;;;-2.33;65.20;99083.06;5040538;28;20076;-88
2021/12/26 01:46:26;;;;;;;6.45;3.03;;;;;;;-2.45;66.06;99086.31;5061056;28;20498;-88
2021/12/26 01:49:11;;;;;;;7.93;3.35;;;;;;;-2.35;65.19;99075.28;5061977;28;20063;-88
2021/12/26 01:51:37;;;;;;;9.02;3.55;;;;;;;-2.43;66.08;99080.75;5061288;28;20029;-87
2021/12/26 01:54:08;;;;;;;5.90;3.33;;;;;;;-2.59;66.59;99074.72;5062016;28;20038;-87
2021/12/26 01:56:34;;;;;;;7.30;3.72;;;;;;;-2.48;66.04;99076.84;5060309;28;20043;-88
2021/12/26 01:59:00;;;;;;;10.52;3.80;;;;;;;-2.27;65.53;99080.47;5061091;28;20040;-88
2021/12/26 02:01:25;;;;;;;8.48;3.45;;;;;;;-2.29;65.83;99063.81;5060845;28;20261;-87
2021/12/26 02:03:50;;;;;;;8.65;4.65;;;;;;;-2.37;65.55;99066.63;5061453;28;20073;-87
2021/12/26 02:06:16;;;;;;;6.85;3.10;;;;;;;-2.36;65.48;99070.97;5043576;28;20938;-87
2021/12/26 02:08:42;;;;;;;6.35;3.33;;;;;;;-2.27;66.00;99067.09;5059776;28;20147;-88
2021/12/26 02:11:07;;;;;;;11.13;3.97;;;;;;;-2.38;66.06;99065.00;5060080;28;20047;-87
2021/12/26 02:13:33;;;;;;;9.15;4.60;;;;;;;-2.20;65.63;99066.31;5059149;28;20151;-87
2021/12/26 02:15:59;;;;;;;9.40;4.30;;;;;;;-2.28;65.34;99072.66;5061738;28;20028;-87
2021/12/26 02:18:39;;;;;;;7.72;3.75;;;;;;;-2.40;65.89;99072.38;5059825;28;20024;-87
2021/12/26 02:23:55;;;;;;;10.18;3.60;;;;;;;-2.37;65.72;99070.13;5060442;28;20115;-86
2021/12/26 02:29:05;;;;;;;5.47;2.50;;;;;;;-2.42;65.77;99077.09;5059800;28;20525;-87
2021/12/26 02:31:30;;;;;;;6.07;2.83;;;;;;;-2.47;67.19;99078.50;5061016;28;20044;-87
2021/12/26 02:33:56;;;;;;;7.30;3.45;;;;;;;-2.32;65.94;99077.56;5061088;28;20083;-87
2021/12/26 02:36:21;;;;;;;7.57;3.85;;;;;;;-2.59;67.08;99078.22;5059774;28;20115;-87
2021/12/26 02:38:47;;;;;;;6.80;3.65;;;;;;;-2.50;66.21;99076.19;5040954;28;20132;-87
2021/12/26 02:41:12;;;;;;;6.03;3.25;;;;;;;-2.54;66.89;99072.28;5060820;28;20058;-87
2021/12/26 02:43:38;;;;;;;6.38;3.25;;;;;;;-2.44;66.25;99069.25;5059330;28;20092;-87
2021/12/26 02:46:06;;;;;;;8.50;3.45;;;;;;;-2.36;65.83;99068.28;5044094;28;20299;-87
2021/12/26 02:48:34;;;;;;;5.90;3.17;;;;;;;-2.39;66.23;99064.16;5060237;28;20039;-86
2021/12/26 02:51:01;;;;;;;7.38;3.30;;;;;;;-2.36;66.92;99065.63;5059591;28;20024;-86
2021/12/26 02:53:40;;;;;;;9.80;4.10;;;;;;;-2.31;66.55;99063.16;5058697;28;20669;-86
2021/12/26 02:56:06;;;;;;;8.75;3.50;;;;;;;-2.43;66.95;99062.06;5059425;28;20043;-87
2021/12/26 02:58:32;;;;;;;11.05;4.55;;;;;;;-2.38;67.27;99065.00;5060917;28;20039;-87
2021/12/26 03:00:59;;;;;;;8.45;4.00;;;;;;;-2.42;67.29;99064.53;5041983;28;20610;-86
2021/12/26 03:03:24;;;;;;;11.77;4.00;;;;;;;-2.41;67.32;99054.69;5041354;28;20113;-87
2021/12/26 03:06:07;;;;;;;9.32;3.75;;;;;;;-2.30;67.49;99056.81;5058494;28;20037;-87
2021/12/26 03:08:32;;;;;;;9.45;3.78;;;;;;;-2.40;66.52;99057.16;5058507;28;20060;-87
2021/12/26 03:10:59;;;;;;;6.97;3.42;;;;;;;-2.42;67.44;99053.06;5043288;28;20059;-88
2021/12/26 03:16:27;;;;;;;11.68;4.70;;;;;;;-2.26;66.35;99052.72;5041010;28;20138;-88
2021/12/26 03:18:58;;;;;;;6.93;3.47;;;;;;;-2.32;66.66;99048.19;5059220;28;20028;-87
2021/12/26 03:21:23;;;;;;;7.78;3.47;;;;;;;-2.59;67.29;99053.38;5059265;28;20029;-87
2021/12/26 03:23:48;;;;;;;10.50;4.63;;;;;;;-2.36;66.96;99049.59;5041740;28;20575;-87
2021/12/26 03:26:14;;;;;;;8.10;3.38;;;;;;;-2.28;67.21;99054.75;5059340;28;20032;-85
2021/12/26 03:28:39;;;;;;;8.82;3.97;;;;;;;-2.33;66.75;99053.69;5058054;28;20440;-87
2021/12/26 03:31:05;;;;;;;10.18;4.10;;;;;;;-2.34;66.65;99050.22;5057959;28;20535;-86
2021/12/26 03:33:30;;;;;;;4.90;2.78;;;;;;;-2.46;66.91;99058.78;5059955;28;20588;-87
2021/12/26 03:35:56;;;;;;;9.70;5.38;;;;;;;-2.43;66.36;99052.22;5060216;28;20375;-87
2021/12/26 03:38:23;;;;;;;7.35;3.22;;;;;;;-2.59;66.33;99058.69;5060201;28;20127;-87
2021/12/26 03:40:50;;;;;;;9.43;3.83;;;;;;;-2.44;66.13;99050.56;5060116;28;20039;-87
2021/12/26 03:43:16;;;;;;;9.05;3.58;;;;;;;-2.37;66.81;99056.78;5040585;28;20032;-87
2021/12/26 03:45:43;;;;;;;7.72;4.10;;;;;;;-2.40;66.50;99053.69;5059561;28;20644;-87
2021/12/26 03:48:09;;;;;;;7.13;3.28;;;;;;;-2.43;66.13;99046.06;5058197;28;20711;-87
2021/12/26 03:50:39;;;;;;;8.98;3.95;;;;;;;-2.37;66.52;99050.59;5061419;28;20024;-85
2021/12/26 03:53:05;;;;;;;13.32;3.75;;;;;;;-2.36;66.68;99042.38;5059144;28;20024;-86
2021/12/26 03:55:30;;;;;;;7.45;3.60;;;;;;;-2.39;66.63;99048.13;5059479;28;20036;-88
2021/12/26 03:57:56;;;;;;;8.90;3.47;;;;;;;-2.36;65.65;99046.94;5059532;28;20123;-87
2021/12/26 04:00:23;;;;;;;7.25;3.05;;;;;;;-2.17;65.56;99049.88;5058965;28;20277;-87
2021/12/26 04:02:49;;;;;;;7.88;3.28;;;;;;;-2.26;65.50;99051.91;5042300;28;20176;-87
2021/12/26 04:05:15;;;;;;;5.68;3.35;;;;;;;-2.38;65.84;99054.31;5041650;28;20082;-87
2021/12/26 04:07:42;;;;;;;14.70;3.20;;;;;;;-2.47;66.07;99051.81;5059639;28;20132;-87
2021/12/26 04:10:08;;;;;;;8.02;3.78;;;;;;;-2.41;64.96;99041.34;5057616;28;20028;-87
2021/12/26 04:12:42;;;;;;;6.10;3.00;;;;;;;-2.46;65.87;99041.91;5059678;28;20033;-87
2021/12/26 04:15:10;;;;;;;5.75;2.78;;;;;;;-2.47;65.91;99040.28;5041239;28;20440;-87
2021/12/26 04:17:36;;;;;;;7.55;3.65;;;;;;;-2.37;65.91;99039.94;5058886;28;20054;-86
2021/12/26 04:20:04;;;;;;;7.57;3.35;;;;;;;-2.40;65.18;99035.00;5041569;28;20153;-87
2021/12/26 04:22:29;;;;;;;7.38;3.72;;;;;;;-2.50;65.78;99036.16;5059539;28;20024;-87
2021/12/26 04:25:09;;;;;;;6.45;3.13;;;;;;;-2.49;65.64;99031.66;5059713;28;20060;-87
2021/12/26 04:27:36;;;;;;;13.48;3.85;;;;;;;-2.48;66.06;99027.94;5057959;28;20048;-87
2021/12/26 04:30:05;;;;;;;7.75;3.30;;;;;;;-2.51;66.22;99039.03;5060688;28;20032;-86
2021/12/26 04:32:30;;;;;;;9.10;3.92;;;;;;;-2.34;65.74;99028.88;5057816;28;20024;-86
2021/12/26 04:34:56;;;;;;;7.28;3.28;;;;;;;-2.30;65.33;99034.63;5061210;28;20059;-86
2021/12/26 04:37:21;;;;;;;6.00;2.78;;;;;;;-2.31;64.95;99039.13;5059159;28;20029;-88
2021/12/26 04:39:47;;;;;;;7.38;3.55;;;;;;;-2.38;66.31;99036.41;5059365;28;20049;-87
2021/12/26 04:42:13;;;;;;;7.35;3.03;;;;;;;-2.43;65.87;99044.22;5065080;28;20027;-87
2021/12/26 04:44:38;;;;;;;8.93;3.00;;;;;;;-2.40;66.28;99041.13;5043837;28;20021;-86
2021/12/26 04:47:04;;;;;;;7.18;4.30;;;;;;;-2.28;67.04;99048.59;5062404;28;20031;-87
2021/12/26 04:49:29;;;;;;;7.18;3.50;;;;;;;-2.29;66.83;99047.78;5044903;28;20614;-87
2021/12/26 04:51:54;;;;;;;5.93;3.17;;;;;;;-2.08;65.71;99043.34;5062567;28;20017;-87
2021/12/26 04:54:20;;;;;;;10.60;2.72;;;;;;;-2.20;65.83;99043.09;5062413;28;20476;-86
2021/12/26 04:56:45;;;;;;;5.80;2.53;;;;;;;-2.09;65.49;99041.69;5045175;28;20036;-88
2021/12/26 04:59:11;;;;;;;8.70;3.72;;;;;;;-2.11;65.52;99035.72;5062397;28;20113;-88
2021/12/26 05:01:37;;;;;;;8.00;4.07;;;;;;;-2.33;65.24;99038.50;5043159;28;20017;-87
2021/12/26 05:04:03;;;;;;;9.75;3.95;;;;;;;-2.20;65.92;99039.59;5045543;28;20513;-87
2021/12/26 05:06:29;;;;;;;7.32;3.22;;;;;;;-2.27;65.24;99029.72;5062165;28;20039;-87
2021/12/26 05:08:54;;;;;;;7.78;3.83;;;;;;;-2.29;66.41;99037.09;5062717;28;20028;-87
2021/12/26 05:11:20;;;;;;;7.28;2.97;;;;;;;-2.20;65.08;99026.25;5045046;28;20020;-87
2021/12/26 05:13:45;;;;;;;8.45;4.20;;;;;;;-2.15;65.26;99027.28;5061044;28;20117;-87
2021/12/26 05:16:11;;;;;;;8.30;2.83;;;;;;;-2.21;64.99;99032.59;5062390;28;20081;-87
2021/12/26 05:18:36;;;;;;;7.47;3.40;;;;;;;-2.26;65.27;99022.53;5060937;28;20013;-87
2021/12/26 05:21:02;;;;;;;6.28;2.55;;;;;;;-2.21;65.67;99021.91;5045209;28;20040;-87
2021/12/26 05:23:27;;;;;;;9.27;4.40;;;;;;;-2.20;65.46;99021.72;5044408;28;20029;-87
2021/12/26 05:25:53;;;;;;;7.70;3.35;;;;;;;-2.14;65.67;99022.78;5061522;28;20032;-87
2021/12/26 05:28:18;;;;;;;5.20;3.20;;;;;;;-2.15;65.62;99015.78;5061342;28;20487;-87
2021/12/26 05:30:44;;;;;;;6.50;2.80;;;;;;;-2.17;66.13;99018.66;5062266;28;20069;-87
2021/12/26 05:33:09;;;;;;;8.82;3.13;;;;;;;-2.17;65.61;99017.81;5060617;28;20526;-87
2021/12/26 05:35:34;;;;;;;8.13;3.63;;;;;;;-2.02;66.13;99021.19;5045222;28;20020;-88
2021/12/26 05:38:00;;;;;;;7.55;3.17;;;;;;;-2.11;65.85;99009.00;5062912;28;20024;-87
2021/12/26 05:40:25;;;;;;;6.85;3.25;;;;;;;-2.12;66.04;99015.41;5060382;28;20041;-87
2021/12/26 05:42:51;;;;;;;6.85;3.75;;;;;;;-2.03;65.13;99008.84;5061891;28;20269;-87
2021/12/26 05:45:17;;;;;;;7.85;3.40;;;;;;;-2.07;65.82;98996.06;5043139;28;20090;-87
2021/12/26 05:47:42;;;;;;;9.70;2.85;;;;;;;-2.14;65.66;99010.25;5044244;28;21883;-87
2021/12/26 05:50:10;;;;;;;6.10;2.90;;;;;;;-2.06;65.27;99003.06;5061789;28;20133;-87
2021/12/26 05:52:36;;;;;;;8.07;3.63;;;;;;;-2.17;65.12;99007.13;5060389;28;20032;-87
2021/12/26 05:55:02;;;;;;;6.25;3.15;;;;;;;-2.09;65.39;98998.94;5062137;28;20020;-87
2021/12/26 05:57:27;;;;;;;7.93;3.65;;;;;;;-2.17;65.66;99004.47;5061121;28;20024;-88
2021/12/26 05:59:53;;;;;;;6.00;2.80;;;;;;;-1.98;65.19;98994.06;5062531;28;20119;-87
2021/12/26 06:02:18;;;;;;;5.45;3.28;;;;;;;-1.95;65.25;99004.34;5061591;28;20020;-86
2021/12/26 06:04:43;;;;;;;7.50;3.47;;;;;;;-2.04;64.35;99001.88;5044100;28;20037;-87
2021/12/26 06:07:09;;;;;;;4.70;2.92;;;;;;;-2.29;65.73;99005.03;5059937;28;20428;-87
2021/12/26 06:09:34;;;;;;;8.00;3.08;;;;;;;-2.08;65.40;99005.13;5060834;28;20028;-87
2021/12/26 06:11:59;;;;;;;10.85;5.28;;;;;;;-2.18;66.41;99005.50;5061493;28;20024;-87
2021/12/26 06:14:25;;;;;;;5.82;2.72;;;;;;;-1.98;65.64;99005.56;5061191;28;20058;-87
2021/12/26 06:16:50;;;;;;;7.75;2.50;;;;;;;-2.08;65.30;98997.94;5061887;28;20028;-87
2021/12/26 06:19:15;;;;;;;7.03;2.70;;;;;;;-1.95;65.92;99004.34;5042100;28;20024;-87
2021/12/26 06:21:40;;;;;;;6.95;3.28;;;;;;;-2.04;65.05;98996.53;5061783;28;20028;-88
2021/12/26 06:24:06;;;;;;;8.20;2.63;;;;;;;-1.80;64.61;98991.66;5059914;28;20024;-87
2021/12/26 06:26:32;;;;;;;8.63;3.45;;;;;;;-1.94;64.49;99001.47;5043460;28;20039;-87
2021/12/26 06:28:58;;;;;;;8.55;3.35;;;;;;;-2.17;65.76;99001.78;5061794;28;20093;-87
2021/12/26 06:31:24;;;;;;;7.38;3.72;;;;;;;-1.99;65.81;99001.25;5060610;28;20048;-87
2021/12/26 06:33:49;;;;;;;7.70;3.35;;;;;;;-1.85;65.17;99001.28;5060307;28;20048;-87
2021/12/26 06:36:15;;;;;;;12.73;3.90;;;;;;;-2.03;65.50;98989.31;5061478;28;20025;-86
2021/12/26 06:38:43;;;;;;;8.90;3.03;;;;;;;-1.79;66.62;98993.28;5062825;28;20638;-86
2021/12/26 06:41:12;;;;;;;6.30;3.03;;;;;;;-1.85;65.90;98988.72;5061708;28;20659;-86
2021/12/26 06:43:38;;;;;;;8.73;3.40;;;;;;;-1.87;65.97;98988.13;5061928;28;20151;-85
2021/12/26 06:46:04;;;;;;;8.65;4.32;;;;;;;-1.74;65.47;98984.66;5061074;28;20067;-88
2021/12/26 06:48:31;;;;;;;10.63;4.25;;;;;;;-1.74;66.02;98994.53;5060924;28;20032;-87
2021/12/26 06:50:56;;;;;;;7.82;4.20;;;;;;;-1.76;65.73;99000.91;5062299;28;20028;-87
2021/12/26 06:53:21;;;;;;;7.10;3.33;;;;;;;-1.95;66.03;98989.13;5060392;28;20029;-87
2021/12/26 06:55:47;;;;;;;6.88;3.67;;;;;;;-1.87;66.30;98993.47;5060840;28;20028;-87
2021/12/26 06:58:14;;;;;;;7.65;3.30;;;;;;;-1.87;66.27;98996.13;5059361;28;20025;-87
2021/12/26 07:00:40;;;;;;;7.22;3.58;;;;;;;-1.99;66.63;98990.56;5061119;28;20119;-87
2021/12/26 07:03:05;;;;;;;7.70;4.00;;;;;;;-1.96;67.03;98992.00;5059582;28;20408;-87
2021/12/26 07:05:30;;;;;;;6.25;3.47;;;;;;;-1.90;66.74;98985.84;5043039;28;20303;-86
2021/12/26 07:07:56;;;;;;;10.98;4.07;;;;;;;-1.88;67.21;98983.81;5060667;28;20044;-85
2021/12/26 07:10:21;;;;;;;7.68;3.22;;;;;;;-1.82;66.44;98974.16;5060109;28;20125;-86
2021/12/26 07:12:47;;;;;;;8.55;3.50;;;;;;;-1.77;66.83;98985.06;5060157;28;20429;-86
2021/12/26 07:15:13;;;;;;;8.23;3.95;;;;;;;-1.89;66.83;98992.84;5059388;28;20036;-87
2021/12/26 07:17:59;;;;;;;9.43;4.57;;;;;;;-1.75;66.71;98991.03;5056659;28;20126;-87
2021/12/26 07:20:24;;;;;;;9.43;4.35;;;;;;;-1.77;66.58;98991.22;5061128;28;20044;-87
2021/12/26 07:22:49;;;;;;;8.02;3.53;;;;;;;-1.72;66.52;98981.78;5060165;28;20115;-87
2021/12/26 07:25:16;;;;;;;12.30;3.53;;;;;;;-1.86;66.89;98981.75;5060645;28;20021;-87
2021/12/26 07:27:42;;;;;;;8.48;4.28;;;;;;;-1.79;67.06;98992.47;5058862;28;20107;-87
2021/12/26 07:30:08;;;;;;;6.15;3.95;;;;;;;-1.65;66.58;98987.97;5060666;28;20608;-86
2021/12/26 07:32:34;;;;;;;6.80;3.53;;;;;;;-1.69;66.58;98992.06;5059705;28;20019;-86
2021/12/26 07:34:59;;;;;;;8.50;3.35;;;;;;;-1.77;66.71;98991.22;5060819;28;20395;-87
2021/12/26 07:37:26;;;;;;;6.80;3.10;;;;;;;-1.73;67.25;98985.50;5059028;28;20103;-87
2021/12/26 07:39:51;;;;;;;6.40;3.47;;;;;;;-1.64;67.01;98994.94;5061074;28;20028;-86
2021/12/26 07:42:17;;;;;;;8.52;3.78;;;;;;;-1.49;66.87;98994.78;5060263;28;20078;-85
2021/12/26 07:44:42;;;;;;;9.18;4.05;;;;;;;-1.61;66.87;99001.75;5060278;28;20031;-87
2021/12/26 07:47:08;;;;;;;11.10;3.13;;;;;;;-1.59;66.57;99008.56;5059897;28;20043;-87
2021/12/26 07:49:33;;;;;;;7.85;4.18;;;;;;;-1.66;67.02;99013.88;5072542;28;20043;-86
2021/12/26 07:51:59;;;;;;;6.25;3.92;;;;;;;-1.68;68.33;99012.41;5060650;28;20247;-86
2021/12/26 07:54:26;;;;;;;7.03;3.78;;;;;;;-1.63;67.78;99004.63;5059681;28;20654;-86
2021/12/26 07:56:52;;;;;;;8.57;3.70;;;;;;;-1.60;67.46;99012.25;5060905;28;20020;-85
2021/12/26 07:59:17;;;;;;;7.93;3.42;;;;;;;-1.62;67.56;99002.75;5060712;28;20506;-87
2021/12/26 08:01:43;;;;;;;8.20;3.42;;;;;;;-1.69;68.01;99002.78;5060557;28;20341;-88
2021/12/26 08:04:10;;;;;;;6.97;3.00;;;;;;;-1.76;68.28;98989.38;5059420;28;20087;-87
2021/12/26 08:06:35;;;;;;;9.65;3.33;;;;;;;-1.71;68.39;98994.13;5058349;28;20227;-87
2021/12/26 08:09:01;;;;;;;5.95;4.10;;;;;;;-1.57;67.73;98990.47;5060113;28;20051;-88
2021/12/26 08:11:26;;;;;;;7.88;3.25;;;;;;;-1.43;67.79;98999.31;5059408;28;20028;-88
2021/12/26 08:13:52;;;;;;;8.73;4.68;;;;;;;-1.42;67.73;98992.09;5060899;28;20177;-87
2021/12/26 08:16:18;;;;;;;6.25;2.88;;;;;;;-1.48;68.01;98990.22;5063056;28;20020;-88
2021/12/26 08:18:43;;;;;;;7.13;3.28;;;;;;;-1.57;67.57;98995.81;5063660;28;20031;-88
2021/12/26 08:21:09;;;;;;;6.15;2.92;;;;;;;-1.65;68.17;98993.31;5063388;28;20275;-87
2021/12/26 08:23:34;;;;;;;7.80;3.58;;;;;;;-1.50;67.86;98986.94;5060532;28;20618;-87
2021/12/26 08:26:01;;;;;;;7.32;3.97;;;;;;;-1.49;67.75;98981.41;5063216;28;20035;-84
2021/12/26 08:28:27;;;;;;;9.45;4.82;;;;;;;-1.30;67.96;98985.09;5043567;28;20044;-84
2021/12/26 08:30:52;;;;;;;7.78;3.38;;;;;;;-1.41;68.14;98988.41;5064477;28;20485;-84
2021/12/26 08:33:18;;;;;;;8.55;3.95;;;;;;;-1.44;68.29;98989.63;5062472;28;20136;-84
2021/12/26 08:35:45;;;;;;;11.50;3.40;;;;;;;-1.36;68.11;98977.09;5045349;28;20395;-84
2021/12/26 08:38:13;;;;;;;9.63;4.10;;;;;;;-1.37;68.18;98995.00;5064721;28;20135;-84
2021/12/26 08:40:38;;;;;;;8.00;3.72;;;;;;;-1.38;69.00;98992.53;5047112;28;20479;-84
2021/12/26 08:43:04;;;;;;;7.68;3.42;;;;;;;-1.22;69.00;98999.31;5061533;28;20858;-84
2021/12/26 08:45:29;;;;;;;8.48;4.65;;;;;;;-1.32;68.39;99005.88;5062938;28;20250;-85
2021/12/26 08:47:56;;;;;;;8.23;3.60;;;;;;;-1.28;68.46;98992.91;5065127;28;20110;-84
2021/12/26 08:50:25;;;;;;;10.25;4.63;;;;;;;-1.33;68.51;99001.56;5064520;28;20036;-84
2021/12/26 08:52:51;;;;;;;8.52;4.03;;;;;;;-1.22;68.54;98992.09;5065165;28;20028;-84
2021/12/26 08:55:17;;;;;;;10.32;5.35;;;;;;;-1.33;69.30;98984.69;5069721;28;20024;-85
2021/12/26 08:57:42;;;;;;;7.78;4.07;;;;;;;-1.12;68.80;98990.88;5066107;28;20037;-85
2021/12/26 09:03:12;;;;;;;8.27;4.03;;;;;;;-1.08;68.75;99002.81;5061790;28;20083;-87
2021/12/26 09:05:37;;;;;;;9.30;4.60;;;;;;;-1.16;68.90;99000.34;5069091;28;20409;-88
2021/12/26 09:08:03;;;;;;;8.85;4.07;;;;;;;-1.01;68.83;98987.56;5072713;28;20103;-87
2021/12/26 09:10:29;;;;;;;9.00;4.22;;;;;;;-1.01;67.92;98992.09;5051443;28;20123;-87
2021/12/26 09:12:54;;;;;;;9.38;4.07;;;;;;;-0.97;68.11;98996.00;5068959;28;20020;-87
2021/12/26 09:15:21;;;;;;;8.38;3.72;;;;;;;-0.87;67.64;98996.41;5066883;28;20055;-85
2021/12/26 09:17:47;;;;;;;6.70;3.83;;;;;;;-0.87;68.09;98983.00;5067879;28;20052;-86
2021/12/26 09:20:12;;;;;;;9.80;3.42;;;;;;;-0.72;67.81;98990.81;5064426;28;20051;-86
2021/12/26 09:22:40;;;;;;;7.10;3.90;;;;;;;-0.64;68.21;99002.34;5066480;28;20032;-86
2021/12/26 09:25:06;;;;;;;7.97;3.20;;;;;;;-0.67;68.04;99003.56;5064631;28;20067;-84
2021/12/26 09:27:33;;;;;;;7.15;3.97;;;;;;;-0.43;66.78;99000.44;5066364;28;20036;-87
2021/12/26 09:29:58;;;;;;;8.40;4.43;;;;;;;-0.59;67.16;99010.56;5051424;28;20093;-85
2021/12/26 09:32:24;;;;;;;7.95;5.38;;;;;;;-0.80;67.75;99014.31;5048018;28;20020;-89
2021/12/26 09:34:49;;;;;;;8.05;4.35;;;;;;;-0.72;68.39;99016.78;5069895;28;20035;-87
2021/12/26 09:37:14;;;;;;;9.15;4.30;;;;;;;-0.66;68.42;99021.28;5044601;28;20024;-86
2021/12/26 09:39:40;;;;;;;7.95;3.78;;;;;;;-0.63;67.70;99020.84;5061360;28;20920;-88
2021/12/26 09:42:07;;;;;;;8.13;5.03;;;;;;;-0.65;68.20;99014.09;5060895;28;20498;-86
2021/12/26 09:44:32;;;;;;;10.73;4.55;;;;;;;-0.45;68.39;99005.16;5065686;28;20619;-85
2021/12/26 09:46:58;;;;;;;9.25;4.63;;;;;;;-0.43;67.79;99011.97;5061857;28;20108;-86
2021/12/26 09:49:23;;;;;;;14.55;5.15;;;;;;;-0.40;68.32;99016.91;5062174;28;20407;-91
2021/12/26 09:51:50;;;;;;;10.43;5.25;;;;;;;-0.31;67.99;99011.31;5062386;28;20479;-84
2021/12/26 09:54:16;;;;;;;10.70;5.18;;;;;;;-0.40;67.77;99008.03;5061806;28;20112;-87
2021/12/26 09:56:41;;;;;;;9.82;5.72;;;;;;;-0.39;68.18;99005.16;5062587;28;21280;-87
2021/12/26 09:59:16;;;;;;;9.25;4.82;;;;;;;-0.36;67.79;98994.00;5061241;28;20482;-88
2021/12/26 10:01:47;;;;;;;9.43;5.13;;;;;;;-0.32;68.05;99002.44;5062518;28;20021;-87
2021/12/26 10:04:17;;;;;;;8.40;6.07;;;;;;;-0.22;67.89;98998.50;5069650;28;20038;-87
2021/12/26 10:09:49;;;;;;;10.88;6.28;;;;;;;-0.25;68.25;98994.38;5057164;28;20087;-92
2021/12/26 10:12:17;;;;;;;10.88;5.82;;;;;;;-0.22;68.25;98991.28;5062189;28;20040;-87
2021/12/26 10:14:46;;;;;;;11.57;6.85;;;;;;;-0.27;69.03;98986.56;5067048;28;20054;-90
2021/12/26 10:17:23;;;;;;;9.23;4.88;;;;;;;-0.13;68.95;98987.34;5066133;28;20036;-94
2021/12/26 10:19:51;;;;;;;7.80;4.72;;;;;;;-0.15;69.07;98978.69;5066694;28;20197;-96
2021/12/26 10:22:36;;;;;;;13.68;5.55;;;;;;;-0.16;69.83;98976.19;5063104;28;20052;-95
2021/12/26 10:25:07;;;;;;;;;;;;;;;-0.08;69.49;98972.47;5073559;28;20068;-94
2021/12/26 10:27:41;;;;;;;9.07;5.13;;;;;;;0.11;68.94;98973.38;5056247;28;19916;-96
2021/12/26 10:30:12;;;;;;;10.50;5.45;;;;;;;0.23;68.85;98968.16;5061107;28;20483;-93
2021/12/26 10:32:38;;;;;;;10.20;5.25;;;;;;;0.14;69.45;98964.94;5061236;28;20051;-89
2021/12/26 10:35:16;;;;;;;10.73;5.47;;;;;;;0.29;68.88;98959.25;5060722;28;20028;-91
2021/12/26 10:37:45;;;;;;;14.18;5.78;;;;;;;0.21;68.98;98954.16;5061591;28;20020;-91
2021/12/26 10:40:28;;;;;;;7.88;4.57;;;;;;;0.23;68.95;98954.75;5060454;28;20048;-93
2021/12/26 10:42:56;;;;;;;11.80;4.65;;;;;;;0.34;68.47;98956.75;5058936;28;20040;-93
2021/12/26 10:45:32;;;;;;;12.60;5.95;;;;;;;0.43;68.54;98951.09;5055819;28;20688;-92
2021/12/26 10:48:06;;;;;;;11.25;5.20;;;;;;;0.08;68.83;98955.88;5060337;28;20035;-89
2021/12/26 10:50:35;;;;;;;8.25;4.22;;;;;;;0.21;69.38;98954.16;5061216;28;20032;-93
2021/12/26 10:53:02;;;;;;;12.00;5.70;;;;;;;0.27;69.05;98955.97;5059863;28;20028;-90
2021/12/26 10:55:37;;;;;;;8.57;5.15;;;;;;;0.30;69.36;98957.41;5056829;28;20033;-92
2021/12/26 10:58:08;;;;;;;8.23;4.78;;;;;;;0.56;68.60;98953.69;5059215;28;20039;-90
2021/12/26 11:00:37;;;;;;;11.77;5.75;;;;;;;0.54;68.62;98952.25;5060644;28;20031;-90
2021/12/26 11:03:12;;;;;;;10.30;6.38;;;;;;;0.50;68.08;98951.88;5060983;28;20051;-87
2021/12/26 11:05:43;;;;;;;11.85;6.60;;;;;;;0.42;69.11;98949.47;5042209;28;20028;-92
2021/12/26 11:08:11;;;;;;;13.07;5.80;;;;;;;0.45;68.70;98939.13;5059909;28;20139;-92
2021/12/26 11:10:40;;;;;;;11.50;5.90;;;;;;;0.44;69.54;98942.03;5066652;28;20084;-88
2021/12/26 11:13:07;;;;;;;12.23;5.95;;;;;;;0.44;69.36;98931.31;5061201;28;20039;-91
2021/12/26 11:15:36;;;;;;;11.20;7.47;;;;;;;0.48;69.61;98937.03;5041950;28;20464;-81
2021/12/26 11:18:12;;;;;;;14.35;7.45;;;;;;;0.50;69.64;98933.13;5059418;28;20036;-80
2021/12/26 11:20:45;;;;;;;11.35;5.43;;;;;;;0.65;69.83;98921.22;5060077;28;20680;-87
2021/12/26 11:23:14;;;;;;;14.40;6.80;;;;;;;0.84;68.76;98923.94;5058621;28;20028;-83
2021/12/26 11:25:43;;;;;;;10.75;7.03;;;;;;;0.86;68.68;98933.41;5058864;28;20032;-86
2021/12/26 11:28:14;;;;;;;17.45;5.97;;;;;;;0.84;69.21;98929.31;5060133;28;20672;-86
2021/12/26 11:30:44;;;;;;;12.30;6.38;;;;;;;0.56;69.42;98923.34;5059385;28;20032;-86
2021/12/26 11:33:10;;;;;;;11.27;6.72;;;;;;;0.58;69.20;98924.78;5058256;28;20089;-86
2021/12/26 11:35:39;;;;;;;11.38;5.88;;;;;;;0.53;69.63;98926.50;5058748;28;20060;-86
2021/12/26 11:38:07;;;;;;;11.30;6.78;;;;;;;0.65;69.11;98926.59;5058495;28;20035;-83
2021/12/26 11:40:32;;;;;;;13.45;6.32;;;;;;;0.56;69.23;98924.19;5060698;28;20090;-84
2021/12/26 11:43:42;;;;;;;11.27;6.18;;;;;;;0.76;68.83;98922.34;5061045;28;20048;-92
2021/12/26 11:46:29;;;;;;;11.60;6.97;;;;;;;0.71;69.60;98920.34;4981466;28;20040;-86
2021/12/26 11:49:23;;;;;;;9.77;5.72;;;;;;;0.72;69.41;98921.16;5058969;28;20123;-87